This is the latest recevied weather packets stored in our database for station/object W7PLC. If no packets are shown the sender has not sent any weather packets the latest 10 day(s).
| Time | Temp. | Humidity | Pressure | Rain* | Wind** | Luminosity | Snow |
|---|---|---|---|---|---|---|---|
| 1777764136 | 24.44° C | 52% | 1011.6 hPa | 0 mm | - | 346 W/m² | - |
| 1777763833 | 25° C | 50% | 1011.6 hPa | 0 mm | - | 356 W/m² | - |
| 1777763531 | 25.56° C | 50% | 1011.7 hPa | 0 mm | - | 516 W/m² | - |
| 1777763230 | 25° C | 52% | 1011.9 hPa | 0 mm | - | 526 W/m² | - |
| 1777762927 | 25.56° C | 50% | 1011.8 hPa | 0 mm | - | 497 W/m² | - |
| 1777762622 | 26.67° C | 48% | 1012.3 hPa | 0 mm | - | 509 W/m² | - |
| 1777762320 | 26.67° C | 47% | 1012.2 hPa | 0 mm | - | 573 W/m² | - |
| 1777762016 | 26.67° C | 48% | 1012.2 hPa | 0 mm | - | 548 W/m² | - |
| 1777761713 | 26.11° C | 48% | 1012.3 hPa | 0 mm | - | 641 W/m² | - |
| 1777761411 | 26.11° C | 48% | 1012.2 hPa | 0 mm | - | 658 W/m² | - |
| 1777761109 | 26.11° C | 48% | 1012.3 hPa | 0 mm | - | 634 W/m² | - |
| 1777760806 | 26.11° C | 49% | 1012.5 hPa | 0 mm | - | 663 W/m² | - |
| 1777760503 | 25.56° C | 50% | 1012.4 hPa | 0 mm | - | 674 W/m² | - |
| 1777760198 | 25° C | 51% | 1012.6 hPa | 0 mm | - | 751 W/m² | - |
| 1777759896 | 26.67° C | 48% | 1012.8 hPa | 0 mm | - | 683 W/m² | - |
| 1777759592 | 26.67° C | 48% | 1013 hPa | 0 mm | - | 691 W/m² | - |
| 1777759288 | 26.11° C | 50% | 1012.8 hPa | 0 mm | - | 672 W/m² | - |
| 1777758986 | 25.56° C | 50% | 1013.1 hPa | 0 mm | - | 658 W/m² | - |
| 1777758682 | 26.11° C | 49% | 1013 hPa | 0 mm | - | 626 W/m² | - |
| 1777758379 | 26.67° C | 48% | 1013 hPa | 0 mm | - | 547 W/m² | - |
| 1777758076 | 25° C | 52% | 1013.2 hPa | 0 mm | - | 615 W/m² | - |
| 1777757774 | 25° C | 52% | 1013 hPa | 0 mm | - | 747 W/m² | - |
| 1777757471 | 24.44° C | 53% | 1013.1 hPa | 0 mm | - | 652 W/m² | - |
| 1777757170 | 25° C | 51% | 1013.2 hPa | 0 mm | - | 593 W/m² | - |
| 1777756868 | 25.56° C | 50% | 1013.2 hPa | 0 mm | - | 641 W/m² | - |
* Rain latest hour (hover to see other rain measurements)
** Current wind speed in m/s (hover to see current wind gust speed)